Time;durP1;ratioP1;P1;durP2;ratioP2;P2;SDS_P1;SDS_P2;PMS_P1;PMS_P2;Temp;Humidity;BMP_temperature;BMP_pressure;BME280_temperature;BME280_humidity;BME280_pressure;Samples;Min_cycle;Max_cycle;Signal;HPM_P1;HPM_P2
2022/07/25 00:00:04;;;;;;;6.75;6.05;;;26.70;55.40;;;;;;5051203;28;20093;-44
2022/07/25 00:02:30;;;;;;;7.63;6.18;;;26.70;55.20;;;;;;5052546;28;20486;-42
2022/07/25 00:04:56;;;;;;;9.23;6.55;;;26.70;55.20;;;;;;5050991;28;20040;-44
2022/07/25 00:07:21;;;;;;;7.10;6.40;;;26.70;55.20;;;;;;5049796;28;20028;-45
2022/07/25 00:09:47;;;;;;;6.25;5.57;;;26.70;55.20;;;;;;5051422;28;20044;-43
2022/07/25 00:12:12;;;;;;;6.45;5.75;;;26.60;55.00;;;;;;5051855;28;20040;-44
2022/07/25 00:14:38;;;;;;;7.25;5.68;;;26.60;54.90;;;;;;5052061;28;20040;-43
2022/07/25 00:17:04;;;;;;;7.10;5.72;;;26.60;54.90;;;;;;5053993;28;20025;-43
2022/07/25 00:19:29;;;;;;;6.93;5.88;;;26.60;54.90;;;;;;5052202;28;20047;-44
2022/07/25 00:21:55;;;;;;;6.88;5.57;;;26.60;54.70;;;;;;5050682;28;20033;-48
2022/07/25 00:24:21;;;;;;;7.28;5.30;;;26.60;54.70;;;;;;5052116;28;20035;-44
2022/07/25 00:26:46;;;;;;;6.82;5.70;;;26.50;54.90;;;;;;5049956;28;20041;-43
2022/07/25 00:29:12;;;;;;;7.72;6.10;;;26.50;55.00;;;;;;5050830;28;20441;-43
2022/07/25 00:31:37;;;;;;;7.10;5.57;;;26.50;55.10;;;;;;5051662;28;20047;-43
2022/07/25 00:34:03;;;;;;;6.53;5.68;;;26.40;55.00;;;;;;5049524;28;20039;-50
2022/07/25 00:36:29;;;;;;;7.55;6.30;;;26.50;55.10;;;;;;5051497;28;20035;-43
2022/07/25 00:38:54;;;;;;;7.40;6.55;;;26.50;55.20;;;;;;5050535;28;20481;-43
2022/07/25 00:41:20;;;;;;;5.95;5.32;;;26.40;55.20;;;;;;5051322;28;20029;-43
2022/07/25 00:43:46;;;;;;;7.93;5.90;;;26.40;55.20;;;;;;5050968;28;20505;-52
2022/07/25 00:46:15;;;;;;;7.18;5.70;;;26.40;55.10;;;;;;5050864;28;20489;-43
2022/07/25 00:48:41;;;;;;;9.43;6.13;;;26.50;55.10;;;;;;5051627;28;20094;-43
2022/07/25 00:51:08;;;;;;;8.70;5.00;;;26.40;55.00;;;;;;5050100;28;20470;-44
2022/07/25 00:53:35;;;;;;;6.68;5.97;;;26.50;54.90;;;;;;5051039;28;20033;-43
2022/07/25 00:56:01;;;;;;;6.53;5.07;;;26.50;55.00;;;;;;5047829;28;20120;-43
2022/07/25 00:58:27;;;;;;;8.30;6.22;;;26.50;54.80;;;;;;5051062;28;20526;-45
2022/07/25 01:00:52;;;;;;;5.90;4.90;;;26.40;54.70;;;;;;5050521;28;20037;-43
2022/07/25 01:03:18;;;;;;;5.75;5.15;;;26.40;54.90;;;;;;5050851;28;20084;-43
2022/07/25 01:05:43;;;;;;;6.10;5.32;;;26.40;54.80;;;;;;5051491;28;20036;-53
2022/07/25 01:08:09;;;;;;;6.75;5.32;;;26.40;54.90;;;;;;5049696;28;20596;-43
2022/07/25 01:10:36;;;;;;;6.03;5.43;;;26.40;55.00;;;;;;5050507;28;20477;-44
2022/07/25 01:13:02;;;;;;;6.18;5.50;;;26.30;54.90;;;;;;5050088;28;20033;-43
2022/07/25 01:15:28;;;;;;;6.05;5.05;;;26.30;55.00;;;;;;5050735;28;20029;-46
2022/07/25 01:17:54;;;;;;;6.40;5.30;;;26.30;55.10;;;;;;5049393;28;20028;-44
2022/07/25 01:20:22;;;;;;;5.30;4.80;;;26.30;55.20;;;;;;5051274;28;20029;-49
2022/07/25 01:22:48;;;;;;;5.95;5.35;;;26.30;55.20;;;;;;5050261;28;20035;-53
2022/07/25 01:25:14;;;;;;;6.70;5.65;;;26.20;55.20;;;;;;5047726;28;20112;-52
2022/07/25 01:27:41;;;;;;;7.47;5.65;;;26.20;55.30;;;;;;5050172;28;20036;-43
2022/07/25 01:30:09;;;;;;;7.57;6.70;;;26.20;55.40;;;;;;5050384;28;20029;-45
2022/07/25 01:32:35;;;;;;;6.05;5.45;;;26.20;55.50;;;;;;5050061;28;20025;-43
2022/07/25 01:35:02;;;;;;;6.10;5.53;;;26.20;55.70;;;;;;5049863;28;20059;-46
2022/07/25 01:37:28;;;;;;;8.57;6.28;;;26.20;55.70;;;;;;5050308;28;20033;-43
2022/07/25 01:39:53;;;;;;;6.60;5.72;;;26.20;55.50;;;;;;5049801;28;20025;-47
2022/07/25 01:42:19;;;;;;;7.13;6.18;;;26.20;55.30;;;;;;5050721;28;20104;-44
2022/07/25 01:44:44;;;;;;;5.82;5.22;;;26.20;55.20;;;;;;5051064;28;20029;-43
2022/07/25 01:47:10;;;;;;;8.45;5.70;;;26.20;55.10;;;;;;5050832;28;20078;-44
2022/07/25 01:49:36;;;;;;;7.03;5.53;;;26.20;55.10;;;;;;5050571;28;20056;-46
2022/07/25 01:52:01;;;;;;;6.38;5.50;;;26.10;55.20;;;;;;5049817;28;20037;-47
2022/07/25 01:54:27;;;;;;;6.30;5.70;;;26.10;55.30;;;;;;5050551;28;20017;-48
2022/07/25 01:56:52;;;;;;;6.50;5.47;;;26.20;55.30;;;;;;5047696;28;20057;-44
2022/07/25 01:59:18;;;;;;;7.05;5.53;;;26.20;55.10;;;;;;5050585;28;20025;-43
2022/07/25 02:01:44;;;;;;;6.00;5.40;;;26.20;55.00;;;;;;5049436;28;20525;-44
2022/07/25 02:04:09;;;;;;;6.30;5.40;;;26.10;55.00;;;;;;5049621;28;20128;-45
2022/07/25 02:06:35;;;;;;;6.10;5.50;;;26.10;55.10;;;;;;5050504;28;20393;-46
2022/07/25 02:09:02;;;;;;;6.55;5.93;;;26.10;55.10;;;;;;5049045;28;20124;-46
2022/07/25 02:11:28;;;;;;;5.97;5.38;;;26.10;55.00;;;;;;5050297;28;20021;-47
2022/07/25 02:13:54;;;;;;;7.25;5.93;;;26.10;55.00;;;;;;5049653;28;20031;-43
2022/07/25 02:16:19;;;;;;;6.55;5.78;;;26.00;55.20;;;;;;5049401;28;20564;-43
2022/07/25 02:18:45;;;;;;;8.10;5.45;;;26.00;55.20;;;;;;5053800;28;20037;-43
2022/07/25 02:21:11;;;;;;;8.80;5.82;;;26.00;55.20;;;;;;5049503;28;20033;-44
2022/07/25 02:23:37;;;;;;;7.00;5.93;;;26.00;55.30;;;;;;5050332;28;20401;-43
2022/07/25 02:26:03;;;;;;;6.10;5.05;;;26.00;55.20;;;;;;5047993;28;20033;-43
2022/07/25 02:28:29;;;;;;;6.60;5.40;;;26.00;55.30;;;;;;5052008;28;20029;-42
2022/07/25 02:30:55;;;;;;;5.97;5.22;;;26.00;55.40;;;;;;5053457;28;20025;-42
2022/07/25 02:33:20;;;;;;;5.93;5.32;;;25.90;55.50;;;;;;5052938;28;20122;-43
2022/07/25 02:35:46;;;;;;;9.75;6.05;;;25.90;55.50;;;;;;5054112;28;20112;-42
2022/07/25 02:38:18;;;;;;;6.85;5.57;;;25.90;55.50;;;;;;5052794;28;20586;-45
2022/07/25 02:40:48;;;;;;;7.28;5.95;;;25.90;55.50;;;;;;5054034;28;20033;-44
2022/07/25 02:43:13;;;;;;;6.80;6.10;;;25.90;55.50;;;;;;5052721;28;20112;-44
2022/07/25 02:45:39;;;;;;;7.10;5.38;;;25.90;55.60;;;;;;5053586;28;20584;-45
2022/07/25 02:48:05;;;;;;;7.22;5.80;;;25.90;55.70;;;;;;5052512;28;20027;-46
2022/07/25 02:50:31;;;;;;;6.63;5.85;;;25.80;55.80;;;;;;5053594;28;20048;-51
2022/07/25 02:52:56;;;;;;;6.63;5.80;;;25.80;55.90;;;;;;5052825;28;20040;-44
2022/07/25 02:55:22;;;;;;;8.18;6.35;;;25.80;56.00;;;;;;5051329;28;20036;-45
2022/07/25 02:57:47;;;;;;;6.18;5.57;;;25.80;56.10;;;;;;5053626;28;20482;-47
2022/07/25 03:00:14;;;;;;;6.85;5.53;;;25.80;56.20;;;;;;5052478;28;20444;-48
2022/07/25 03:02:40;;;;;;;7.00;6.28;;;25.80;56.30;;;;;;5053275;28;20032;-45
2022/07/25 03:05:07;;;;;;;10.63;6.47;;;25.80;57.10;;;;;;5051187;28;20097;-43
2022/07/25 03:07:34;;;;;;;6.88;6.18;;;25.80;56.50;;;;;;5053605;28;20076;-43
2022/07/25 03:09:59;;;;;;;7.03;6.32;;;25.80;56.50;;;;;;5052730;28;20028;-47
2022/07/25 03:12:25;;;;;;;8.02;6.60;;;25.80;56.50;;;;;;5050385;28;20493;-42
2022/07/25 03:14:51;;;;;;;8.52;6.38;;;25.80;56.50;;;;;;5052983;28;20029;-52
2022/07/25 03:17:16;;;;;;;9.45;7.20;;;25.80;56.50;;;;;;5052797;28;20053;-44
2022/07/25 03:19:42;;;;;;;6.55;5.63;;;25.80;56.30;;;;;;5053145;28;20481;-42
2022/07/25 03:22:08;;;;;;;6.60;5.90;;;25.80;55.80;;;;;;5052302;28;20037;-43
2022/07/25 03:24:33;;;;;;;6.93;5.80;;;25.80;55.90;;;;;;5047962;28;20032;-48
2022/07/25 03:26:59;;;;;;;6.93;6.03;;;25.70;56.10;;;;;;5050978;28;20025;-49
2022/07/25 03:29:25;;;;;;;9.35;6.30;;;25.70;56.00;;;;;;5050360;28;20356;-42
2022/07/25 03:31:50;;;;;;;7.30;5.97;;;25.70;56.10;;;;;;5052929;28;20029;-43
2022/07/25 03:34:16;;;;;;;7.10;6.07;;;25.70;56.20;;;;;;5051818;28;20025;-45
2022/07/25 03:36:41;;;;;;;6.80;6.10;;;25.70;55.90;;;;;;5053028;28;20459;-42
2022/07/25 03:39:07;;;;;;;12.95;5.90;;;25.70;55.80;;;;;;5051214;28;20021;-44
2022/07/25 03:41:32;;;;;;;7.40;5.93;;;25.70;55.80;;;;;;5052152;28;20033;-49
2022/07/25 03:43:58;;;;;;;7.78;6.28;;;25.60;55.60;;;;;;5050974;28;20029;-42
2022/07/25 03:46:24;;;;;;;7.20;5.80;;;25.60;55.70;;;;;;5052750;28;20112;-44
2022/07/25 03:48:49;;;;;;;7.13;5.88;;;25.60;55.50;;;;;;5052605;28;20159;-42
2022/07/25 03:51:15;;;;;;;7.00;5.65;;;25.60;55.50;;;;;;5051835;28;20517;-43
2022/07/25 03:54:02;;;;;;;6.88;5.93;;;25.60;55.50;;;;;;5055488;28;20460;-42
2022/07/25 03:56:35;;;;;;;7.28;6.07;;;25.70;55.50;;;;;;5046957;28;20040;-45
2022/07/25 03:59:01;;;;;;;9.60;5.80;;;25.70;55.40;;;;;;5050452;28;20097;-45
2022/07/25 04:01:27;;;;;;;11.27;6.80;;;25.70;55.20;;;;;;5052888;28;20029;-42
2022/07/25 04:03:52;;;;;;;6.82;5.72;;;25.60;55.20;;;;;;5051417;28;20485;-51
2022/07/25 04:06:18;;;;;;;6.97;5.80;;;25.60;55.10;;;;;;5051885;28;20100;-47
2022/07/25 04:08:44;;;;;;;6.20;5.40;;;25.60;55.20;;;;;;5051692;28;20532;-43
2022/07/25 04:11:10;;;;;;;6.03;4.97;;;25.60;55.40;;;;;;5051637;28;20029;-42
2022/07/25 04:13:36;;;;;;;7.07;6.35;;;25.60;55.40;;;;;;5051380;28;20156;-42
2022/07/25 04:16:01;;;;;;;7.07;6.03;;;25.60;55.50;;;;;;5033691;28;20111;-42
2022/07/25 04:18:27;;;;;;;5.95;5.35;;;25.60;55.50;;;;;;5051566;28;20028;-47
2022/07/25 04:20:53;;;;;;;6.60;5.35;;;25.60;55.50;;;;;;5052659;28;20108;-42
2022/07/25 04:23:18;;;;;;;8.05;5.90;;;25.60;55.60;;;;;;5050940;28;20063;-42
2022/07/25 04:25:44;;;;;;;6.43;5.68;;;25.60;55.70;;;;;;5050877;28;20033;-42
2022/07/25 04:28:09;;;;;;;7.80;5.82;;;25.60;55.60;;;;;;5049723;28;20127;-42
2022/07/25 04:30:35;;;;;;;5.95;5.22;;;25.60;55.50;;;;;;5051607;28;20029;-42
2022/07/25 04:33:01;;;;;;;6.22;5.57;;;25.60;55.50;;;;;;5050698;28;20112;-49
2022/07/25 04:35:27;;;;;;;8.35;5.30;;;25.60;55.40;;;;;;5051496;28;20048;-42
2022/07/25 04:37:52;;;;;;;8.88;6.15;;;25.60;55.50;;;;;;5049626;28;20540;-42
2022/07/25 04:40:18;;;;;;;8.68;5.88;;;25.60;55.40;;;;;;5051427;28;20024;-42
2022/07/25 04:42:43;;;;;;;7.38;5.72;;;25.60;55.30;;;;;;5052135;28;20029;-42
2022/07/25 04:45:09;;;;;;;6.65;5.80;;;25.60;55.30;;;;;;5050682;28;20106;-42
2022/07/25 04:47:35;;;;;;;5.82;5.22;;;25.60;55.40;;;;;;5051149;28;20386;-42
2022/07/25 04:50:01;;;;;;;7.10;5.45;;;25.60;55.50;;;;;;5050959;28;20028;-42
2022/07/25 04:52:26;;;;;;;6.40;5.70;;;25.60;55.60;;;;;;5051308;28;20051;-42
2022/07/25 04:54:52;;;;;;;6.95;5.57;;;25.60;55.70;;;;;;5050180;28;20068;-42
2022/07/25 04:57:18;;;;;;;6.07;5.45;;;25.60;55.70;;;;;;5049267;28;20159;-42
2022/07/25 04:59:43;;;;;;;8.23;5.75;;;25.60;55.70;;;;;;5051272;28;20374;-41
2022/07/25 05:02:09;;;;;;;8.80;6.00;;;25.60;55.90;;;;;;5049839;28;20040;-41
2022/07/25 05:04:35;;;;;;;8.15;5.57;;;25.60;55.90;;;;;;5049814;28;20037;-41
2022/07/25 05:07:00;;;;;;;7.80;5.78;;;25.60;55.70;;;;;;5050107;28;20021;-52
2022/07/25 05:09:26;;;;;;;6.65;5.90;;;25.60;55.50;;;;;;5050593;28;20063;-41
2022/07/25 05:11:52;;;;;;;7.85;5.85;;;25.60;55.70;;;;;;5050589;28;20064;-44
2022/07/25 05:14:18;;;;;;;8.05;6.60;;;25.60;55.60;;;;;;5050225;28;20025;-41
2022/07/25 05:16:44;;;;;;;6.75;5.47;;;25.70;55.70;;;;;;5051069;28;20051;-42
2022/07/25 05:19:10;;;;;;;7.30;5.85;;;25.70;55.80;;;;;;5049491;28;20398;-42
2022/07/25 05:21:37;;;;;;;6.85;6.13;;;25.70;55.80;;;;;;5051089;28;20032;-41
2022/07/25 05:24:03;;;;;;;7.40;5.85;;;25.70;55.60;;;;;;5050564;28;20043;-42
2022/07/25 05:26:28;;;;;;;7.53;5.93;;;25.70;55.70;;;;;;5049215;28;20047;-42
2022/07/25 05:28:54;;;;;;;9.90;6.63;;;25.80;56.00;;;;;;5049976;28;20455;-42
2022/07/25 05:31:20;;;;;;;8.93;7.13;;;25.80;56.00;;;;;;5050217;28;20482;-41
2022/07/25 05:33:45;;;;;;;9.75;6.63;;;25.80;56.10;;;;;;5050867;28;20421;-48
2022/07/25 05:36:11;;;;;;;8.30;6.60;;;25.80;56.30;;;;;;5049741;28;20033;-41
2022/07/25 05:38:37;;;;;;;9.35;6.57;;;25.80;56.30;;;;;;5049899;28;20068;-42
2022/07/25 05:41:03;;;;;;;8.13;6.55;;;25.80;56.20;;;;;;5049717;28;20090;-51
2022/07/25 05:43:29;;;;;;;7.80;6.47;;;25.80;56.20;;;;;;5050861;28;20037;-42
2022/07/25 05:46:03;;;;;;;7.82;6.20;;;25.80;56.20;;;;;;5050495;28;20104;-41
2022/07/25 05:48:29;;;;;;;8.07;6.15;;;25.80;56.20;;;;;;5045572;28;20531;-47
2022/07/25 05:50:56;;;;;;;8.73;6.47;;;25.90;56.20;;;;;;5049261;28;20033;-41
2022/07/25 05:53:22;;;;;;;8.52;7.13;;;26.00;56.30;;;;;;5049260;28;20017;-42
2022/07/25 05:55:47;;;;;;;10.93;6.78;;;26.00;56.40;;;;;;5051341;28;20040;-41
2022/07/25 05:58:13;;;;;;;9.80;7.43;;;26.00;56.50;;;;;;5047900;28;20021;-41
2022/07/25 06:00:39;;;;;;;9.73;6.88;;;26.00;56.60;;;;;;5050579;28;20140;-41
2022/07/25 06:03:04;;;;;;;9.73;6.50;;;26.00;56.70;;;;;;5050277;28;20029;-42
2022/07/25 06:05:30;;;;;;;9.40;6.50;;;26.10;56.60;;;;;;5049208;28;20033;-42
2022/07/25 06:07:56;;;;;;;10.25;7.65;;;26.10;56.60;;;;;;5054361;28;20136;-43
2022/07/25 06:10:22;;;;;;;10.88;7.00;;;26.10;56.60;;;;;;5053999;28;20656;-42
2022/07/25 06:12:48;;;;;;;8.43;6.97;;;26.10;56.70;;;;;;5053413;28;20350;-50
2022/07/25 06:15:13;;;;;;;8.93;6.65;;;26.20;56.70;;;;;;5055557;28;20040;-42
2022/07/25 06:17:39;;;;;;;9.02;7.15;;;26.30;56.30;;;;;;5057014;28;20021;-42
2022/07/25 06:20:05;;;;;;;7.68;6.47;;;26.40;56.30;;;;;;5051860;28;20021;-42
2022/07/25 06:22:31;;;;;;;8.82;6.80;;;26.40;56.20;;;;;;5053533;28;20040;-42
2022/07/25 06:24:56;;;;;;;7.60;6.15;;;26.50;56.20;;;;;;5054334;28;20020;-42
2022/07/25 06:27:22;;;;;;;11.88;6.57;;;26.50;56.10;;;;;;5052108;28;20257;-42
2022/07/25 06:29:48;;;;;;;9.13;6.10;;;26.60;56.10;;;;;;5053794;28;20578;-42
2022/07/25 06:32:13;;;;;;;8.32;6.25;;;26.60;56.10;;;;;;5052215;28;20033;-47
2022/07/25 06:34:39;;;;;;;7.38;6.50;;;26.60;56.10;;;;;;5051404;28;20033;-42
2022/07/25 06:37:05;;;;;;;9.77;6.45;;;26.60;56.00;;;;;;5053235;28;20378;-42
2022/07/25 06:39:30;;;;;;;7.50;6.15;;;26.70;56.00;;;;;;5049755;28;20037;-42
2022/07/25 06:41:58;;;;;;;7.45;6.32;;;26.60;55.80;;;;;;5055154;28;20040;-42
2022/07/25 06:44:24;;;;;;;8.45;6.72;;;26.60;55.80;;;;;;5049800;28;20056;-44
2022/07/25 06:46:50;;;;;;;6.72;6.00;;;26.70;55.80;;;;;;5055020;28;20032;-46
2022/07/25 06:49:16;;;;;;;9.15;6.32;;;26.70;55.70;;;;;;5047776;28;20021;-42
2022/07/25 06:51:42;;;;;;;8.15;6.57;;;26.80;56.20;;;;;;5058410;28;20036;-44
2022/07/25 06:54:07;;;;;;;9.43;5.97;;;26.80;55.40;;;;;;5054148;28;20397;-42
2022/07/25 06:56:33;;;;;;;9.57;6.32;;;26.80;55.70;;;;;;5049861;28;20033;-47
2022/07/25 06:58:59;;;;;;;8.18;6.55;;;26.90;55.60;;;;;;5050244;28;20025;-43
2022/07/25 07:01:25;;;;;;;9.23;6.18;;;26.90;55.60;;;;;;5054903;28;20053;-43
2022/07/25 07:03:51;;;;;;;8.77;6.03;;;26.90;55.70;;;;;;5054504;28;20110;-44
2022/07/25 07:06:16;;;;;;;8.40;6.55;;;27.00;55.70;;;;;;5052023;28;20095;-44
2022/07/25 07:08:42;;;;;;;10.38;5.97;;;27.00;55.80;;;;;;5052479;28;20458;-43
2022/07/25 07:11:07;;;;;;;8.07;6.20;;;27.00;55.80;;;;;;5052744;28;20038;-44
2022/07/25 07:13:33;;;;;;;9.02;6.25;;;27.00;55.70;;;;;;5059086;28;20119;-43
2022/07/25 07:15:59;;;;;;;7.43;6.47;;;27.00;55.80;;;;;;5054553;28;20029;-43
2022/07/25 07:18:25;;;;;;;9.07;6.50;;;27.00;55.80;;;;;;5052721;28;20060;-43
2022/07/25 07:20:51;;;;;;;9.20;6.55;;;27.00;55.80;;;;;;5052192;28;20529;-44
2022/07/25 07:23:17;;;;;;;8.60;6.18;;;27.00;55.80;;;;;;5052111;28;20766;-45
2022/07/25 07:25:44;;;;;;;9.95;6.45;;;27.00;56.00;;;;;;5051572;28;20464;-43
2022/07/25 07:28:10;;;;;;;10.20;6.20;;;27.00;55.80;;;;;;5054741;28;20039;-44
2022/07/25 07:30:36;;;;;;;10.63;6.28;;;27.00;55.70;;;;;;5056241;28;20032;-43
2022/07/25 07:33:02;;;;;;;7.13;5.93;;;27.00;55.80;;;;;;5051970;28;20029;-52
2022/07/25 07:35:28;;;;;;;7.18;5.95;;;27.10;55.80;;;;;;5056182;28;20501;-49
2022/07/25 07:37:54;;;;;;;9.93;6.00;;;27.10;55.70;;;;;;5052646;28;20095;-42
2022/07/25 07:40:20;;;;;;;9.15;6.28;;;27.10;55.70;;;;;;5051596;28;20427;-46
2022/07/25 07:42:48;;;;;;;10.02;6.47;;;27.10;55.80;;;;;;5052700;28;20055;-43
2022/07/25 07:45:16;;;;;;;7.40;6.03;;;27.10;55.70;;;;;;5051948;28;20116;-42
2022/07/25 07:47:42;;;;;;;7.35;6.13;;;27.10;55.70;;;;;;5058764;28;20116;-43
2022/07/25 07:50:09;;;;;;;7.72;6.13;;;27.10;55.70;;;;;;5054921;28;20107;-43
2022/07/25 07:52:35;;;;;;;8.45;6.15;;;27.10;55.80;;;;;;5051719;28;20078;-42
2022/07/25 07:57:45;;;;;;;8.02;5.80;;;27.10;55.70;;;;;;5056608;28;20032;-44
2022/07/25 08:00:11;;;;;;;6.55;5.82;;;27.10;55.60;;;;;;5051831;28;20389;-48
2022/07/25 08:02:45;;;;;;;9.45;6.07;;;27.10;55.60;;;;;;5048819;28;20020;-43
2022/07/25 08:05:12;;;;;;;7.88;6.30;;;27.20;55.60;;;;;;5050866;28;20021;-43
2022/07/25 08:07:37;;;;;;;7.80;5.70;;;27.10;55.60;;;;;;5052139;28;20056;-43
2022/07/25 08:10:04;;;;;;;7.07;6.05;;;27.20;55.70;;;;;;5052830;28;20087;-46
2022/07/25 08:12:29;;;;;;;7.68;5.95;;;27.20;55.60;;;;;;5052250;28;20667;-42
2022/07/25 08:14:55;;;;;;;7.05;5.72;;;27.20;55.70;;;;;;5048469;28;20037;-51
2022/07/25 08:17:20;;;;;;;9.00;6.38;;;27.20;55.60;;;;;;5048693;28;20033;-43
2022/07/25 08:19:46;;;;;;;7.65;6.05;;;27.20;55.50;;;;;;5033152;28;20171;-42
2022/07/25 08:22:11;;;;;;;8.15;5.68;;;27.20;55.40;;;;;;5050532;28;20471;-42
2022/07/25 08:24:37;;;;;;;8.63;5.97;;;27.20;55.50;;;;;;5052464;28;20118;-42
2022/07/25 08:27:03;;;;;;;7.85;6.45;;;27.20;55.50;;;;;;5051053;28;20033;-49
2022/07/25 08:29:28;;;;;;;7.25;6.15;;;27.20;55.50;;;;;;5050049;28;20021;-46
2022/07/25 08:31:54;;;;;;;7.00;6.10;;;27.20;55.50;;;;;;5051789;28;20037;-42
2022/07/25 08:34:21;;;;;;;7.75;6.57;;;27.30;55.40;;;;;;5050730;28;20037;-43
2022/07/25 08:36:47;;;;;;;8.35;6.68;;;27.30;55.50;;;;;;5051203;28;20041;-42
2022/07/25 08:39:13;;;;;;;6.95;5.70;;;27.20;55.40;;;;;;5050358;28;20029;-42
2022/07/25 08:41:42;;;;;;;8.40;6.13;;;27.30;55.50;;;;;;5050716;28;20466;-43
2022/07/25 08:44:08;;;;;;;9.70;6.07;;;27.30;55.50;;;;;;5050809;28;20106;-52
2022/07/25 08:46:35;;;;;;;8.98;5.95;;;27.30;55.30;;;;;;5053201;28;20057;-44
2022/07/25 08:49:01;;;;;;;8.90;6.38;;;27.30;55.30;;;;;;5050856;28;20035;-44
2022/07/25 08:51:28;;;;;;;8.65;6.40;;;27.30;55.10;;;;;;5050571;28;20379;-50
2022/07/25 08:53:54;;;;;;;8.35;5.70;;;27.30;55.20;;;;;;5043788;28;20025;-44
2022/07/25 08:56:19;;;;;;;9.82;6.13;;;27.30;55.30;;;;;;5050895;28;20036;-43
2022/07/25 08:58:46;;;;;;;6.82;6.13;;;27.30;55.20;;;;;;5051092;28;20033;-43
2022/07/25 09:01:12;;;;;;;6.90;6.13;;;27.30;55.20;;;;;;5050791;28;20028;-43
2022/07/25 09:03:39;;;;;;;6.50;5.90;;;27.30;55.10;;;;;;5050949;28;20048;-43
2022/07/25 09:06:18;;;;;;;8.63;6.43;;;27.30;55.00;;;;;;5051513;28;20032;-52
2022/07/25 09:08:55;;;;;;;7.28;6.35;;;27.30;54.90;;;;;;5050382;28;20098;-43
2022/07/25 09:11:30;;;;;;;7.97;6.28;;;27.30;54.70;;;;;;5042606;28;20079;-42
2022/07/25 09:14:13;;;;;;;7.53;6.10;;;27.30;54.70;;;;;;5052561;28;20112;-42
2022/07/25 09:16:42;;;;;;;7.35;5.43;;;27.40;54.90;;;;;;5051433;28;20035;-43
2022/07/25 09:19:12;;;;;;;6.90;6.20;;;27.40;54.80;;;;;;5048946;28;20029;-52
2022/07/25 09:21:39;;;;;;;6.65;5.85;;;27.30;54.70;;;;;;5050406;28;20036;-43
2022/07/25 09:24:17;;;;;;;7.28;6.22;;;27.40;55.10;;;;;;5049213;28;20480;-52
2022/07/25 09:26:51;;;;;;;7.10;5.97;;;27.40;54.20;;;;;;5050537;28;20063;-43
2022/07/25 09:29:23;;;;;;;7.00;6.07;;;27.40;54.60;;;;;;5048697;28;20943;-43
2022/07/25 09:31:50;;;;;;;6.35;5.63;;;27.40;54.50;;;;;;5049986;28;20032;-44
2022/07/25 09:34:36;;;;;;;9.05;6.88;;;27.40;53.90;;;;;;5049612;28;20124;-43
2022/07/25 09:37:07;;;;;;;7.28;6.32;;;27.40;54.10;;;;;;5048078;28;20112;-47
2022/07/25 09:39:44;;;;;;;7.05;5.38;;;27.40;54.20;;;;;;5050650;28;20094;-43
2022/07/25 09:42:21;;;;;;;6.75;6.05;;;27.40;54.30;;;;;;5045803;28;20091;-44
2022/07/25 09:45:03;;;;;;;6.90;5.57;;;27.40;54.40;;;;;;5049953;28;20037;-43
2022/07/25 09:47:31;;;;;;;8.80;5.93;;;27.40;54.00;;;;;;5048313;28;20090;-43
2022/07/25 09:49:56;;;;;;;6.53;5.82;;;27.40;53.90;;;;;;5050271;28;20029;-42
2022/07/25 09:52:22;;;;;;;8.25;5.65;;;27.40;54.00;;;;;;5050230;28;20385;-42
2022/07/25 09:54:48;;;;;;;6.22;5.35;;;27.40;53.90;;;;;;5050077;28;20090;-42
2022/07/25 09:57:15;;;;;;;6.82;6.13;;;27.40;53.30;;;;;;5050024;28;20035;-43
2022/07/25 09:59:41;;;;;;;7.65;6.00;;;27.40;53.30;;;;;;5049639;28;20180;-42
2022/07/25 10:02:08;;;;;;;6.38;5.75;;;27.40;53.30;;;;;;5050269;28;20114;-53
2022/07/25 10:04:44;;;;;;;6.68;5.47;;;27.40;53.30;;;;;;5049734;28;20381;-46
2022/07/25 10:07:13;;;;;;;6.72;5.40;;;27.40;53.00;;;;;;5048976;28;20355;-44
2022/07/25 10:09:47;;;;;;;5.63;4.97;;;27.40;53.40;;;;;;5032368;28;20040;-45
2022/07/25 10:12:17;;;;;;;6.40;5.70;;;27.40;53.00;;;;;;5049718;28;20162;-43
2022/07/25 10:15:09;;;;;;;6.05;5.45;;;27.40;53.20;;;;;;5050074;28;20037;-43
2022/07/25 10:17:37;;;;;;;6.20;5.30;;;27.40;53.40;;;;;;5045144;28;20025;-42
2022/07/25 10:20:05;;;;;;;9.65;6.25;;;27.40;53.20;;;;;;5049439;28;20039;-45
2022/07/25 10:22:41;;;;;;;6.70;5.38;;;27.40;53.20;;;;;;5048968;28;20513;-43
2022/07/25 10:25:13;;;;;;;6.90;5.45;;;27.40;53.30;;;;;;5050057;28;20409;-51
2022/07/25 10:27:47;;;;;;;7.28;6.28;;;27.50;53.90;;;;;;5034306;28;20033;-43
2022/07/25 10:30:27;;;;;;;6.80;5.60;;;27.40;54.30;;;;;;5049584;28;20052;-43
2022/07/25 10:32:58;;;;;;;6.60;5.90;;;27.40;54.50;;;;;;5048957;28;20052;-43
2022/07/25 10:35:26;;;;;;;7.43;5.68;;;27.50;54.80;;;;;;5048709;28;20029;-43
2022/07/25 10:37:54;;;;;;;6.05;5.40;;;27.50;54.90;;;;;;5049559;28;20029;-44
2022/07/25 10:40:46;;;;;;;6.10;5.50;;;27.50;54.70;;;;;;5031743;28;20386;-43
2022/07/25 10:43:12;;;;;;;6.13;5.53;;;27.50;55.00;;;;;;5048777;28;20044;-43
2022/07/25 10:45:53;;;;;;;6.20;5.60;;;27.50;54.60;;;;;;5049731;28;20025;-43
2022/07/25 10:48:22;;;;;;;6.80;5.40;;;27.50;54.90;;;;;;5052686;28;20036;-44
2022/07/25 10:50:51;;;;;;;7.18;5.97;;;27.50;54.80;;;;;;5053531;28;20032;-46
2022/07/25 10:53:32;;;;;;;5.38;4.85;;;27.50;55.00;;;;;;5052219;28;20044;-43
2022/07/25 10:56:19;;;;;;;5.82;4.90;;;27.50;54.90;;;;;;5053852;28;20087;-46
2022/07/25 10:58:47;;;;;;;6.35;5.63;;;27.50;55.00;;;;;;5052617;28;20033;-43
2022/07/25 11:01:13;;;;;;;6.60;5.85;;;27.50;55.30;;;;;;5052226;28;20021;-45
2022/07/25 11:03:43;;;;;;;6.32;5.20;;;27.50;54.90;;;;;;5053303;28;20470;-47
2022/07/25 11:06:13;;;;;;;6.30;5.10;;;27.50;55.20;;;;;;5052917;28;20029;-46
2022/07/25 11:08:40;;;;;;;5.40;4.90;;;27.50;55.30;;;;;;5053463;28;20482;-46
2022/07/25 11:11:07;;;;;;;7.90;5.03;;;27.50;55.20;;;;;;5052652;28;20021;-43
2022/07/25 11:13:38;;;;;;;6.82;4.97;;;27.50;55.20;;;;;;5052089;28;20555;-43
2022/07/25 11:16:04;;;;;;;6.13;4.97;;;27.50;55.30;;;;;;5053916;28;20025;-42
2022/07/25 11:18:35;;;;;;;5.60;4.97;;;27.50;55.40;;;;;;5052893;28;20776;-41
2022/07/25 11:21:03;;;;;;;4.82;4.43;;;27.50;55.40;;;;;;5052791;28;20029;-42
2022/07/25 11:23:29;;;;;;;7.57;5.10;;;27.50;55.60;;;;;;5052168;28;20693;-44
2022/07/25 11:26:09;;;;;;;6.43;5.22;;;27.50;55.30;;;;;;5052990;28;20086;-42
2022/07/25 11:28:46;;;;;;;6.20;5.10;;;27.50;55.40;;;;;;5053483;28;20063;-42
2022/07/25 11:31:13;;;;;;;5.18;4.63;;;27.50;55.40;;;;;;5030709;28;20034;-51
2022/07/25 11:33:41;;;;;;;5.07;4.57;;;27.50;55.30;;;;;;5052827;28;20099;-42
2022/07/25 11:36:09;;;;;;;6.22;4.78;;;27.50;55.40;;;;;;5053120;28;20037;-45
2022/07/25 11:38:35;;;;;;;5.70;4.93;;;27.50;55.50;;;;;;5053246;28;20049;-44
2022/07/25 11:41:01;;;;;;;5.13;4.63;;;27.50;55.40;;;;;;5053312;28;20033;-43
2022/07/25 11:43:27;;;;;;;5.82;4.80;;;27.50;55.50;;;;;;5051950;28;20493;-45
2022/07/25 11:46:09;;;;;;;5.93;5.32;;;27.50;55.50;;;;;;5052072;28;20104;-45
2022/07/25 11:48:38;;;;;;;5.25;4.53;;;27.50;55.50;;;;;;5052545;28;20029;-43
2022/07/25 11:51:10;;;;;;;5.57;4.97;;;27.60;55.60;;;;;;5051636;28;20049;-43
2022/07/25 11:53:50;;;;;;;6.05;4.88;;;27.60;55.60;;;;;;5052995;28;20029;-41
2022/07/25 11:56:19;;;;;;;7.07;4.78;;;27.60;55.60;;;;;;5052179;28;20405;-42
2022/07/25 11:58:59;;;;;;;5.55;4.95;;;27.60;55.50;;;;;;5051571;28;20044;-42
2022/07/25 12:01:36;;;;;;;4.95;4.45;;;27.60;55.50;;;;;;5051473;28;20029;-45
2022/07/25 12:04:15;;;;;;;7.70;4.88;;;27.50;55.20;;;;;;5052427;28;20025;-43
2022/07/25 12:06:43;;;;;;;4.93;4.43;;;27.50;55.50;;;;;;5051961;28;20040;-46
2022/07/25 12:09:11;;;;;;;6.20;5.28;;;27.50;55.30;;;;;;5051560;28;20067;-52
2022/07/25 12:11:37;;;;;;;6.93;5.15;;;27.50;55.30;;;;;;5051384;28;20031;-42
2022/07/25 12:14:03;;;;;;;6.72;5.20;;;27.50;55.40;;;;;;5052049;28;20029;-42
2022/07/25 12:16:31;;;;;;;6.15;4.70;;;27.60;55.50;;;;;;5051277;28;20099;-42
2022/07/25 12:18:58;;;;;;;5.70;4.72;;;27.50;55.70;;;;;;5049081;28;20029;-43
2022/07/25 12:21:23;;;;;;;6.70;4.75;;;27.50;55.70;;;;;;5051556;28;20035;-42
2022/07/25 12:23:49;;;;;;;5.80;5.03;;;27.60;55.90;;;;;;5051458;28;20037;-45
2022/07/25 12:26:14;;;;;;;6.70;5.00;;;27.60;55.90;;;;;;5051524;28;20021;-43
2022/07/25 12:28:40;;;;;;;7.00;4.97;;;27.60;55.80;;;;;;5050032;28;20025;-43
2022/07/25 12:31:06;;;;;;;5.72;4.95;;;27.50;55.70;;;;;;5052940;28;20024;-43
2022/07/25 12:33:32;;;;;;;6.45;4.93;;;27.50;55.70;;;;;;5052013;28;20048;-42
2022/07/25 12:35:59;;;;;;;8.25;4.90;;;27.60;55.90;;;;;;5049943;28;20033;-45
2022/07/25 12:38:25;;;;;;;6.55;4.93;;;27.60;55.80;;;;;;5049654;28;20044;-43
2022/07/25 12:40:51;;;;;;;7.93;5.20;;;27.60;55.70;;;;;;5053924;28;20039;-42
2022/07/25 12:43:17;;;;;;;7.05;4.53;;;27.60;55.80;;;;;;5051951;28;20039;-43
2022/07/25 12:45:42;;;;;;;6.63;4.72;;;27.60;55.70;;;;;;5032916;28;20033;-44
2022/07/25 12:48:09;;;;;;;5.90;4.80;;;27.60;56.00;;;;;;5054950;28;20027;-47